• Join FlightAware (Why Join?)
  • Login
  • US Flag 
09:26PM EDT


 

Airport Tracker/Info


-or-


 

Live Flight TrackerFlight Track Log ✈ PRY5 ✈ 14-Aug-2013 ✈ KBUF - KTHV

Flight Track Log - Related Links

Times and Time Zones

All times are in EDT time to prevent confusion due to time zone crossing. See the PRY5 flight status page for this flight to view local times or setup timezone preferences in your user account.

Time Position Orientation Groundspeed Altitude Reporting Facility
EDT Latitude Longitude Course Direction KTS MPH feet Rate Location/Type
09:37PM 42.6598 -78.5499 155° Southeast  Level Estimated
09:38PM 42.6197 -78.5242 155° Southeast  Level Estimated
09:39PM 42.5796 -78.4985 155° Southeast  Level Estimated
09:40PM 42.5395 -78.4729 155° Southeast  Level Estimated
09:40PM 42.5081 -78.4961 155° Southeast 175 201 7,000  Level Cleveland Center
09:41PM 42.4993 -78.4473 155° Southeast  Level Estimated
09:41PM 42.4617 -78.4639 153° Southeast 180 207 7,000  Level Cleveland Center
09:42PM 42.4592 -78.4218 155° Southeast  Level Estimated
09:42PM 42.4153 -78.4344 155° Southeast 180 207 7,000  Level Cleveland Center
09:43PM 42.4191 -78.3963 155° Southeast  Level Estimated
09:43PM 42.3686 -78.4022 153° Southeast 180 207 7,000  Level Cleveland Center
09:44PM 42.3789 -78.3708 155° Southeast  Level Estimated
09:44PM 42.3222 -78.3703 153° Southeast 180 207 7,000  Level Cleveland Center
09:45PM 42.3388 -78.3453 155° Southeast  Level Estimated
09:45PM 42.2736 -78.3383 154° Southeast 180 207 7,000  Level Cleveland Center
09:46PM 42.2272 -78.3092 155° Southeast 185 213 7,000  Level Cleveland Center
09:47PM 42.1808 -78.2800 155° Southeast 185 213 7,000  Level Cleveland Center
09:48PM 42.1303 -78.2508 157° South 190 219 7,000  Level Cleveland Center
09:49PM 42.0817 -78.2192 154° Southeast 195 224 7,000  Level Cleveland Center
09:50PM 42.0394 -78.1900 153° Southeast 190 219 7,000  Level Cleveland Center
09:51PM 41.9928 -78.1636 157° South 190 219 7,000  Level Cleveland Center
09:52PM 41.9442 -78.1319 154° Southeast 190 219 7,000  Level Cleveland Center
09:53PM 41.8894 -78.1033 159° South 190 219 7,100  Climbing Cleveland Center
09:54PM 41.8450 -78.0717 152° Southeast 197 227 7,100  Level Cleveland Center
09:55PM 41.7964 -78.0458 158° South 197 227 7,100  Level Cleveland Center
09:56PM 41.7500 -78.0142 153° Southeast 192 221 7,100  Level Cleveland Center
09:57PM 41.7033 -77.9853 155° Southeast 192 221 7,100  Level Cleveland Center
09:58PM 41.6569 -77.9539 153° Southeast 192 221 7,100  Level Cleveland Center
09:59PM 41.6103 -77.9225 153° Southeast 192 221 7,100  Level Cleveland Center
10:00PM 41.5678 -77.8908 151° Southeast 192 221 7,100 -60 Level Cleveland Center
10:01PM 41.5019 -77.8514 156° South 181 208 7,000 -60 Descending New York Center
10:02PM 41.4558 -77.8189 152° Southeast 181 208 7,000  Level New York Center
10:03PM 41.4097 -77.7889 154° Southeast 181 208 7,000  Level New York Center
10:04PM 41.3636 -77.7592 154° Southeast 186 214 7,000  Level New York Center
10:05PM 41.3194 -77.7297 153° Southeast 186 214 7,000  Level New York Center
10:06PM 41.2733 -77.7003 154° Southeast 191 220 7,000  Level New York Center
10:07PM 41.2292 -77.6708 153° Southeast 191 220 7,000  Level New York Center
10:08PM 41.1850 -77.6417 154° Southeast 191 220 7,000  Level New York Center
10:09PM 41.1389 -77.6122 154° Southeast 191 220 7,000  Level New York Center
10:10PM 41.0925 -77.5853 156° South 191 220 7,000  Level New York Center
10:11PM 41.0458 -77.5614 159° South 191 220 7,000  Level New York Center
10:12PM 41.0017 -77.5350 156° South 191 220 7,000  Level New York Center
10:13PM 40.9553 -77.5056 154° Southeast 191 220 7,000  Level New York Center
10:14PM 40.9131 -77.4794 155° Southeast 191 220 7,100  Climbing New York Center
10:15PM 40.8667 -77.4531 157° South 191 220 7,100  Level New York Center
10:16PM 40.8203 -77.4239 155° Southeast 191 220 7,100  Level New York Center
10:17PM 40.7781 -77.3950 153° Southeast 185 213 7,100  Level New York Center
10:18PM 40.7317 -77.3686 157° South 185 213 7,100  Level New York Center
10:19PM 40.6853 -77.3394 155° Southeast 191 220 7,100 -60 Level New York Center
10:20PM 40.6328 -77.3072 155° Southeast 191 220 7,000 -60 Descending New York Center
10:21PM 40.5867 -77.2781 154° Southeast 191 220 7,000  Level New York Center
10:22PM 40.5400 -77.2519 157° South 186 214 7,000  Level New York Center
10:23PM 40.4958 -77.2231 154° Southeast 186 214 7,000 -60 Level New York Center
10:24PM 40.4492 -77.1969 157° South 186 214 6,900 -480 Descending New York Center
10:25PM 40.3986 -77.1678 156° South 192 221 6,100 -720 Descending New York Center
10:26PM 40.3483 -77.1358 154° Southeast 192 221 5,500 -600 Descending New York Center
10:27PM 40.2997 -77.1069 156° South 192 221 5,000 -300 Descending New York Center
10:28PM 40.2514 -77.0781 155° Southeast 192 221 5,000  Level New York Center
10:29PM 40.2050 -77.0492 155° Southeast 192 221 5,000  Level New York Center
10:31PM 40.1560 -77.0151 153° Southeast  Level FlightAware Approximate
10:38PM 39.9167 -76.8667 159° South  Level FlightAware Approximate
10:39PM 39.9170 -76.8730 159° South  Level Estimated
10:40PM 39.9167 -76.8667 159° South  Level FlightAware Approximate
10:41PM 39.9170 -76.8730 159° South  Level Estimated
10:42PM 39.9167 -76.8667 159° South  Level FlightAware Approximate
10:43PM 39.9170 -76.8730 159° South  Level Estimated
10:44PM 39.9167 -76.8667 159° South  Level FlightAware Approximate
10:45PM 39.9170 -76.8730 159° South  Level Estimated